Flight Track Log - Related Links

Times and Time Zones

All times are in EDT time to prevent confusion due to time zone crossing. See the GJS6262 flight status page for this flight to view local times or setup timezone preferences in your user account.

Time Position Orientation Groundspeed Altitude Reporting Facility
EDT Latitude Longitude Course Direction KTS MPH feet Rate Location/Type
Fri 12:48:24 PM 40.7500 -73.8000 27° Northeast 176 203 2,600  Level New York TRACON
Fri 12:49:18 PM 40.8000 -73.7667 27° Northeast 228 262 5,100 2,737 Climbing New York TRACON
Fri 12:50:18 PM 40.8500 -73.8167 323° Northwest 232 267 7,800 2,429 Climbing New York TRACON
Fri 12:51:24 PM 40.8833 -73.8833 303° West 245 282 10,200 1,905 Climbing New York TRACON
Fri 12:52:24 PM 40.9167 -73.9833 294° West 302 348 11,800 1,950 Climbing New York TRACON
Fri 12:53:24 PM 40.9667 -74.0667 308° West 322 371 14,100 2,100 Climbing New York TRACON
Fri 12:54:24 PM 41.0167 -74.1667 304° West 327 376 16,000 545 Climbing New York TRACON
Fri 12:56:53 PM 41.1372 -74.3967 305° West 321 369 16,000 522 Level New York Center
Fri 12:57:51 PM 41.1864 -74.4931 304° West 316 364 17,800 1,850 Climbing New York Center
Fri 12:58:53 PM 41.2372 -74.5922 304° West 321 369 19,700 1,400 Climbing New York Center
Fri 01:00:51 PM 41.3617 -74.7983 270° West 331 381 22,000 767 Climbing New York Center
Fri 01:01:53 PM 41.4269 -74.8964 312° West 344 396 22,000  Level New York Center
Fri 01:02:52 PM 41.4858 -74.9942 309° West 344 396 22,000  Level New York Center
Fri 01:03:53 PM 41.5492 -75.0922 311° West 344 396 22,000  Level New York Center
Fri 01:04:53 PM 41.5906 -75.2086 295° West 344 396 22,000  Level New York Center
Fri 01:05:53 PM 41.6236 -75.3275 290° West 344 396 22,000  Level New York Center
Fri 01:06:52 PM 41.6586 -75.4464 292° West 344 396 22,000  Level New York Center
Fri 01:07:51 PM 41.6892 -75.5625 289° West 344 396 22,000  Level New York Center
Fri 01:08:52 PM 41.7203 -75.6703 291° West 339 390 22,000  Level New York Center
Fri 01:09:52 PM 41.7531 -75.7839 291° West 333 383 22,000  Level New York Center
Fri 01:10:52 PM 41.7856 -75.8978 291° West 333 383 22,000 -49 Level New York Center
Fri 01:11:54 PM 41.8222 -76.0147 293° West 333 383 21,900 -800 Descending New York Center
Fri 01:12:52 PM 41.8867 -76.1089 313° West 343 395 20,400 -1,563 Descending New York Center
Fri 01:13:53 PM 41.9511 -76.2033 313° West 343 395 18,800 -1,509 Descending New York Center
Fri 01:15:39 PM 42.0742 -76.3664 316° Northwest 340 391 16,200 -964 Descending Cleveland Center
Fri 01:16:41 PM 42.1369 -76.4528 314° West 330 380 16,100  Descending Cleveland Center
Fri 01:17:43 PM 42.1997 -76.5397 314° West 326 375 16,200 48 Climbing Cleveland Center
Fri 01:18:45 PM 42.2631 -76.6289 314° West 328 377 16,200  Level Cleveland Center
Fri 01:19:47 PM 42.3275 -76.7181 314° West 329 379 16,200  Level Cleveland Center
Fri 01:20:49 PM 42.4039 -76.8267 314° West 331 381 16,200 -48 Level Cleveland Center
Fri 01:21:51 PM 42.4681 -76.9156 314° West 332 382 16,100 -130 Descending Cleveland Center
Fri 01:22:21 PM 42.5017 -76.9636 313° West 331 381 16,000 -492 Descending Cleveland Center
Fri 01:22:52 PM 42.5353 -77.0122 313° West 331 381 15,600 -188 Descending Cleveland Center
Fri 01:22:53 PM 42.5314 -77.0044 124° Southeast 332 382 15,900 -1,333 Climbing Cleveland Center
Fri 01:23:55 PM 42.5994 -77.0800 321° Northwest 321 369 14,200 -2,031 Descending Cleveland Center
Fri 01:23:58 PM 42.6092 -77.0911 320° Northwest 296 341 13,700 -2,069 Descending Cleveland Center
Fri 01:24:53 PM 42.6689 -77.1494 324° Northwest 287 330 12,200 -1,322 Descending Cleveland Center
Fri 01:24:57 PM 42.6622 -77.1472 166° South 296 341 12,400 -1,672 Climbing Cleveland Center
Fri 01:25:54 PM 42.7464 -77.1719 348° North 282 325 10,500 -1,935 Descending Cleveland Center
Fri 01:25:59 PM 42.7553 -77.1722 359° North 288 331 10,400 -1,612 Descending Cleveland Center
Fri 01:27:01 PM 42.8278 -77.1972 346° North 275 316 8,700 -1,707 Descending Cleveland Center
Fri 01:27:55 PM 42.8894 -77.2258 341° North 260 299 7,100 -1,645 Descending Cleveland Center
Fri 01:28:03 PM 42.8972 -77.2286 345° North 269 310 7,000 -1,543 Descending Cleveland Center
Fri 01:29:05 PM 42.9619 -77.2669 337° Northwest 260 299 5,300 -1,593 Descending Cleveland Center
Fri 01:29:56 PM 43.0142 -77.3217 323° Northwest 227 261 4,000 -1,161 Descending Cleveland Center
Fri 01:30:07 PM 43.0153 -77.3208 29° Northeast 241 277 4,100 -218 Climbing Cleveland Center
Fri 01:30:51 PM 43.0553 -77.3611 324° Northwest 192 221 3,800 -484 Descending Cleveland Center
Fri 01:31:09 PM 43.0689 -77.3725 329° Northwest 209 241 3,600 -1,200 Descending Cleveland Center
Fri 01:31:51 PM 43.0972 -77.4097 316° Northwest 199 229 2,600 -968 Descending Cleveland Center
Fri 01:32:11 PM 43.1103 -77.4239 322° Northwest 203 234 2,600 -98 Level Cleveland Center
Fri 01:32:52 PM 43.1353 -77.4719 305° West 216 249 2,500  Descending Cleveland Center
Fri 01:33:13 PM 43.1469 -77.4881 315° West 210 242 2,600  Climbing Cleveland Center
Fri 01:33:53 PM 43.1714 -77.5306 308° West 199 229 2,500  Descending Cleveland Center
Fri 01:34:15 PM 43.1825 -77.5461 314° West 209 241 2,600 -100 Climbing Cleveland Center
Fri 01:34:53 PM 43.1931 -77.5886 289° West 162 186 2,400 -194 Descending Cleveland Center
Fri 01:35:17 PM 43.1914 -77.6014 260° West 180 207 2,400 -590 Level Cleveland Center
Fri 01:35:54 PM 43.1764 -77.6306 235° Southwest 111 128 1,800 -677 Descending Cleveland Center
Fri 01:36:19 PM 43.1700 -77.6383 222° Southwest 146 168 1,700 -727 Descending Cleveland Center
Fri 01:37:00 PM 43.1431 -77.6564 206° Southwest 122 140 1,000 -774 Descending Cleveland Center
Fri 01:37:21 PM 43.1350 -77.6644 216° Southwest 127 146 900 -289 Descending Cleveland Center
Fri 01:38:23 PM 43.1358 -77.6883 273° West 118 136 600 -290 Descending Cleveland Center

Login

Don't have an account? Register now (free) for customized features, flight alerts, and more!